Overview Statistics Trail Chart Weather Telemetry Raw packets
 

This is the latest recevied weather packets stored in our database for station/object KO4DYK. If no packets are shown the sender has not sent any weather packets the latest 10 day(s).

<< 1 2 3 4 5 6 7 >>
Time Temp. Humidity Pressure Rain* Wind** Luminosity Snow
1788646995 38.33° C 46% 1012.5 hPa 0 mm - 107 W/m² -
1788646692 38.89° C 45% 1012.3 hPa 0 mm - 191 W/m² -
1788646388 39.44° C 44% 1012.5 hPa 0 mm - 242 W/m² -
1788646083 39.44° C 44% 1012.5 hPa 0 mm - 249 W/m² -
1788645780 39.44° C 45% 1012.4 hPa 0 mm - 255 W/m² -
1788645479 38.33° C 46% 1012.3 hPa 0 mm - 276 W/m² -
1788645175 38.33° C 46% 1012.5 hPa 0 mm - 284 W/m² -
1788644870 39.44° C 45% 1012.5 hPa 0 mm - 288 W/m² -
1788644566 40° C 45% 1012.6 hPa 0 mm - 344 W/m² -
1788644261 39.44° C 45% 1012.5 hPa 0 mm - 358 W/m² -
1788643957 38.89° C 47% 1012.6 hPa 0 mm - 361 W/m² -
1788643652 37.22° C 49% 1012.5 hPa 0 mm - 391 W/m² -
1788643351 37.78° C 49% 1012.7 hPa 0 mm - 87 W/m² -
1788643051 38.33° C 47% 1012.6 hPa 0 mm - 98 W/m² -
1788642746 39.44° C 45% 1012.4 hPa 0 mm - 197 W/m² -
1788642443 39.44° C 45% 1012.5 hPa 0 mm - 426 W/m² -
1788642143 38.33° C 46% 1012.4 hPa 0 mm - 487 W/m² -
1788641841 38.33° C 45% 1012.5 hPa 0 mm - 474 W/m² -
1788641537 38.89° C 42% 1012.6 hPa 0 mm - 520 W/m² -
1788641236 40° C 41% 1012.7 hPa 0 mm - 175 W/m² -
1788640932 41.11° C 40% 1012.7 hPa 0 mm - 395 W/m² -
1788640626 40° C 41% 1013 hPa 0 mm - 427 W/m² -
1788640322 40° C 41% 1013 hPa 0 mm - 513 W/m² -
1788640017 40° C 41% 1013.1 hPa 0 mm - 223 W/m² -
1788639712 38.89° C 42% 1013.2 hPa 0 mm - 591 W/m² -

* Rain latest hour (hover to see other rain measurements)
** Current wind speed in m/s (hover to see current wind gust speed)